Willis, Texas
Current Conditions -  °F | °C
As of 2:53 PM on Sunday 23 Nov 2014 (Local Time) from KCXO Reporting Station
Clear Clear  
Wind Chill: 77°   Ceiling: Unl
Heat Index: 78°   Visibility: 10mi
Dew Point: 52°   Wind: 12mph
Humidity: 42%   Direction: 220°SW
Pressure: 29.52"   Gusts: 24mph
Location:  30.42°N, 95.48°W
Report Text: KCXO 232053Z 22010G21KT 10SM CLR 25/11 A2952 RMK AO2 SLP993 T02500111 56029
Loading
Personal Weather Stations






























Interactive Weather Map New forecast layout! Learn more

10-Day Weather Forecast

Advertisements
Track Severe Weather on mobile